Time,TemperatureF,DewpointF,PressureIn,WindDirection,WindDirectionDegrees,WindSpeedMPH,WindSpeedGustMPH,Humidity,HourlyPrecipIn,Conditions,Clouds,dailyrainin,SoftwareType,DateUTC
2013-03-17 00:01:00,47.0,34.0,-100.00,East,87,2.0,3.0,60,-99.99,,,-99.99,,2013-03-17 07:01:00,
2013-03-17 00:12:00,45.0,33.0,-100.00,NNW,343,1.0,3.0,63,-99.99,,,-99.99,,2013-03-17 07:12:00,
2013-03-17 00:22:00,46.0,34.0,-100.00,North,7,1.0,3.0,63,-99.99,,,-99.99,,2013-03-17 07:22:00,
2013-03-17 00:32:00,45.0,33.0,-100.00,NNE,33,1.0,4.0,62,-99.99,,,-99.99,,2013-03-17 07:32:00,
2013-03-17 00:42:00,45.0,33.0,-100.00,North,354,2.0,3.0,62,-99.99,,,-99.99,,2013-03-17 07:42:00,
2013-03-17 00:52:00,45.0,32.0,-100.00,North,353,3.0,5.0,60,-99.99,,,-99.99,,2013-03-17 07:52:00,
2013-03-17 01:02:00,43.0,32.0,-100.00,North,8,3.0,5.0,66,-99.99,,,-99.99,,2013-03-17 08:02:00,
2013-03-17 01:12:00,43.0,33.0,-100.00,North,11,4.0,5.0,67,-99.99,,,-99.99,,2013-03-17 08:12:00,
2013-03-17 01:22:00,44.0,33.0,-100.00,North,8,4.0,6.0,65,-99.99,,,-99.99,,2013-03-17 08:22:00,
2013-03-17 01:32:00,44.0,33.0,-100.00,North,8,4.0,6.0,65,-99.99,,,-99.99,,2013-03-17 08:32:00,
2013-03-17 01:42:00,45.0,32.0,-100.00,North,355,3.0,5.0,61,-99.99,,,-99.99,,2013-03-17 08:42:00,
2013-03-17 01:52:00,44.0,32.0,-100.00,East,100,1.0,4.0,62,-99.99,,,-99.99,,2013-03-17 08:52:00,
2013-03-17 02:02:00,42.0,33.0,-100.00,SSE,166,2.0,4.0,69,-99.99,,,-99.99,,2013-03-17 09:02:00,
2013-03-17 02:12:00,41.0,34.0,-100.00,SSW,204,1.0,2.0,77,-99.99,,,-99.99,,2013-03-17 09:12:00,
2013-03-17 02:22:00,41.0,34.0,-100.00,ENE,63,1.0,3.0,76,-99.99,,,-99.99,,2013-03-17 09:22:00,
2013-03-17 02:32:00,41.0,35.0,-100.00,North,357,2.0,4.0,78,-99.99,,,-99.99,,2013-03-17 09:32:00,
2013-03-17 02:42:00,42.0,34.0,-100.00,NNE,27,3.0,6.0,74,-99.99,,,-99.99,,2013-03-17 09:42:00,
2013-03-17 02:52:00,42.0,33.0,-100.00,NNW,347,4.0,6.0,71,-99.99,,,-99.99,,2013-03-17 09:52:00,
2013-03-17 03:02:00,42.0,33.0,-100.00,North,352,3.0,5.0,69,-99.99,,,-99.99,,2013-03-17 10:02:00,
2013-03-17 03:12:00,42.0,31.0,-100.00,North,10,3.0,5.0,66,-99.99,,,-99.99,,2013-03-17 10:12:00,
2013-03-17 03:23:00,43.0,32.0,-100.00,NNE,13,3.0,4.0,66,-99.99,,,-99.99,,2013-03-17 10:23:00,
2013-03-17 03:33:00,42.0,32.0,-100.00,NNE,14,3.0,4.0,67,-99.99,,,-99.99,,2013-03-17 10:33:00,
2013-03-17 03:42:00,43.0,32.0,-100.00,North,355,3.0,4.0,65,-99.99,,,-99.99,,2013-03-17 10:42:00,
2013-03-17 03:52:00,41.0,32.0,-100.00,East,80,1.0,2.0,69,-99.99,,,-99.99,,2013-03-17 10:52:00,
2013-03-17 04:02:00,41.0,33.0,-100.00,ENE,77,2.0,3.0,72,-99.99,,,-99.99,,2013-03-17 11:02:00,
2013-03-17 04:12:00,41.0,32.0,-100.00,NE,37,2.0,4.0,71,-99.99,,,-99.99,,2013-03-17 11:12:00,
2013-03-17 04:22:00,43.0,32.0,-100.00,East,95,1.0,2.0,66,-99.99,,,-99.99,,2013-03-17 11:22:00,
2013-03-17 04:32:00,43.0,32.0,-100.00,NNW,343,2.0,4.0,65,-99.99,,,-99.99,,2013-03-17 11:32:00,
2013-03-17 04:42:00,42.0,31.0,-100.00,North,6,4.0,6.0,65,-99.99,,,-99.99,,2013-03-17 11:42:00,
2013-03-17 04:51:00,43.0,30.0,-100.00,NNW,344,5.0,6.0,59,-99.99,,,-99.99,,2013-03-17 11:51:00,
2013-03-17 05:01:00,43.0,30.0,-100.00,North,7,4.0,6.0,61,-99.99,,,-99.99,,2013-03-17 12:01:00,
2013-03-17 05:12:00,42.0,32.0,-100.00,North,9,2.0,5.0,67,-99.99,,,-99.99,,2013-03-17 12:12:00,
2013-03-17 05:21:00,43.0,30.0,-100.00,NNE,18,4.0,6.0,61,-99.99,,,-99.99,,2013-03-17 12:21:00,
2013-03-17 05:32:00,44.0,31.0,-100.00,NNE,26,2.0,4.0,61,-99.99,,,-99.99,,2013-03-17 12:32:00,
2013-03-17 05:42:00,44.0,31.0,-100.00,NNE,25,2.0,5.0,60,-99.99,,,-99.99,,2013-03-17 12:42:00,
2013-03-17 05:51:00,45.0,30.0,-100.00,WSW,258,3.0,9.0,55,-99.99,,,-99.99,,2013-03-17 12:51:00,
2013-03-17 06:01:00,41.0,31.0,-100.00,NNE,14,1.0,4.0,66,-99.99,,,-99.99,,2013-03-17 13:01:00,
2013-03-17 06:12:00,41.0,31.0,-100.00,ENE,60,3.0,4.0,68,-99.99,,,-99.99,,2013-03-17 13:12:00,
2013-03-17 06:22:00,41.0,31.0,-100.00,North,10,2.0,4.0,67,-99.99,,,-99.99,,2013-03-17 13:22:00,
2013-03-17 06:32:00,41.0,31.0,-100.00,West,279,1.0,2.0,67,-99.99,,,-99.99,,2013-03-17 13:32:00,
2013-03-17 06:42:00,39.0,30.0,-100.00,ENE,62,1.0,3.0,71,-99.99,,,-99.99,,2013-03-17 13:42:00,
2013-03-17 06:52:00,40.0,31.0,-100.00,NNE,18,1.0,3.0,69,-99.99,,,-99.99,,2013-03-17 13:52:00,
2013-03-17 07:02:00,39.0,31.0,-100.00,ENE,61,1.0,4.0,72,-99.99,,,-99.99,,2013-03-17 14:02:00,
2013-03-17 07:12:00,39.0,31.0,-100.00,North,10,1.0,4.0,73,-99.99,,,-99.99,,2013-03-17 14:12:00,
2013-03-17 07:22:00,40.0,31.0,-100.00,NNW,327,1.0,4.0,71,-99.99,,,-99.99,,2013-03-17 14:22:00,
2013-03-17 07:32:00,39.0,31.0,-100.00,East,94,1.0,3.0,72,-99.99,,,-99.99,,2013-03-17 14:32:00,
2013-03-17 07:42:00,39.0,30.0,-100.00,NE,38,2.0,4.0,70,-99.99,,,-99.99,,2013-03-17 14:42:00,
2013-03-17 07:52:00,41.0,31.0,-100.00,ENE,70,1.0,3.0,66,-99.99,,,-99.99,,2013-03-17 14:52:00,
2013-03-17 08:01:00,39.0,30.0,-100.00,ESE,123,1.0,4.0,69,-99.99,,,-99.99,,2013-03-17 15:01:00,
2013-03-17 08:11:00,40.0,30.0,-100.00,ESE,121,2.0,3.0,68,-99.99,,,-99.99,,2013-03-17 15:11:00,
2013-03-17 08:22:00,43.0,32.0,-100.00,NNW,342,1.0,3.0,65,-99.99,,,-99.99,,2013-03-17 15:22:00,
2013-03-17 08:32:00,45.0,31.0,-100.00,NNE,26,2.0,4.0,58,-99.99,,,-99.99,,2013-03-17 15:32:00,
2013-03-17 08:42:00,49.0,31.0,-100.00,WNW,302,1.0,3.0,49,-99.99,,,-99.99,,2013-03-17 15:42:00,
2013-03-17 08:52:00,51.0,31.0,-100.00,NNE,12,2.0,3.0,46,-99.99,,,-99.99,,2013-03-17 15:52:00,
2013-03-17 09:03:00,51.0,31.0,-100.00,NNE,12,2.0,3.0,46,-99.99,,,-99.99,,2013-03-17 16:03:00,
2013-03-17 09:12:00,56.0,28.0,-100.00,NW,318,1.0,2.0,34,-99.99,,,-99.99,,2013-03-17 16:12:00,
2013-03-17 09:22:00,57.0,27.0,-100.00,West,260,1.0,3.0,32,-99.99,,,-99.99,,2013-03-17 16:22:00,
2013-03-17 09:33:00,59.0,28.0,-100.00,SSW,192,2.0,3.0,31,-99.99,,,-99.99,,2013-03-17 16:33:00,
2013-03-17 09:42:00,59.0,30.0,-100.00,SSE,164,2.0,4.0,33,-99.99,,,-99.99,,2013-03-17 16:42:00,
2013-03-17 09:52:00,62.0,30.0,-100.00,East,97,0.0,1.0,30,-99.99,,,-99.99,,2013-03-17 16:52:00,
2013-03-17 10:02:00,63.0,29.0,-100.00,South,175,1.0,3.0,27,-99.99,,,-99.99,,2013-03-17 17:02:00,
2013-03-17 10:12:00,62.0,29.0,-100.00,South,180,3.0,5.0,29,-99.99,,,-99.99,,2013-03-17 17:12:00,
2013-03-17 10:22:00,61.0,31.0,-100.00,SSW,193,4.0,8.0,32,-99.99,,,-99.99,,2013-03-17 17:22:00,
2013-03-17 10:32:00,61.0,32.0,-100.00,South,183,6.0,9.0,34,-99.99,,,-99.99,,2013-03-17 17:32:00,
2013-03-17 10:42:00,62.0,32.0,-100.00,South,189,4.0,8.0,32,-99.99,,,-99.99,,2013-03-17 17:42:00,
2013-03-17 10:52:00,64.0,32.0,-100.00,SSW,201,4.0,8.0,30,-99.99,,,-99.99,,2013-03-17 17:52:00,
2013-03-17 11:01:00,65.0,32.0,-100.00,South,179,6.0,10.0,29,-99.99,,,-99.99,,2013-03-17 18:01:00,
2013-03-17 11:12:00,65.0,32.0,-100.00,South,186,5.0,10.0,29,-99.99,,,-99.99,,2013-03-17 18:12:00,
2013-03-17 11:22:00,66.0,33.0,-100.00,SSW,206,5.0,8.0,29,-99.99,,,-99.99,,2013-03-17 18:22:00,
2013-03-17 11:32:00,67.0,33.0,-100.00,South,186,5.0,8.0,28,-99.99,,,-99.99,,2013-03-17 18:32:00,
2013-03-17 11:42:00,67.0,32.0,-100.00,SSW,203,4.0,9.0,27,-99.99,,,-99.99,,2013-03-17 18:42:00,
2013-03-17 11:52:00,68.0,32.0,-100.00,South,174,4.0,8.0,26,-99.99,,,-99.99,,2013-03-17 18:52:00,
2013-03-17 12:02:00,68.0,32.0,-100.00,South,174,4.0,8.0,26,-99.99,,,-99.99,,2013-03-17 19:02:00,
2013-03-17 12:12:00,69.0,30.0,-100.00,SSE,165,3.0,7.0,23,-99.99,,,-99.99,,2013-03-17 19:12:00,
2013-03-17 12:22:00,70.0,30.0,-100.00,South,180,4.0,9.0,23,-99.99,,,-99.99,,2013-03-17 19:22:00,
2013-03-17 12:32:00,70.0,30.0,-100.00,South,181,4.0,10.0,23,-99.99,,,-99.99,,2013-03-17 19:32:00,
2013-03-17 12:41:00,70.0,30.0,-100.00,South,189,5.0,9.0,23,-99.99,,,-99.99,,2013-03-17 19:41:00,
2013-03-17 12:53:00,71.0,31.0,-100.00,SW,219,5.0,11.0,23,-99.99,,,-99.99,,2013-03-17 19:53:00,
2013-03-17 13:02:00,72.0,32.0,-100.00,South,191,5.0,9.0,23,-99.99,,,-99.99,,2013-03-17 20:02:00,
2013-03-17 13:12:00,72.0,30.0,-100.00,South,189,8.0,14.0,21,-99.99,,,-99.99,,2013-03-17 20:12:00,
2013-03-17 13:22:00,72.0,30.0,-100.00,South,191,6.0,13.0,21,-99.99,,,-99.99,,2013-03-17 20:22:00,
2013-03-17 13:32:00,72.0,30.0,-100.00,South,191,6.0,13.0,21,-99.99,,,-99.99,,2013-03-17 20:32:00,
2013-03-17 13:42:00,72.0,30.0,-100.00,SSW,202,7.0,14.0,21,-99.99,,,-99.99,,2013-03-17 20:42:00,
2013-03-17 13:52:00,72.0,33.0,-100.00,South,183,9.0,16.0,24,-99.99,,,-99.99,,2013-03-17 20:52:00,
2013-03-17 14:02:00,71.0,34.0,-100.00,SW,221,9.0,15.0,26,-99.99,,,-99.99,,2013-03-17 21:02:00,
2013-03-17 14:12:00,71.0,33.0,-100.00,SSW,198,8.0,16.0,25,-99.99,,,-99.99,,2013-03-17 21:12:00,
2013-03-17 14:22:00,72.0,34.0,-100.00,SW,227,9.0,18.0,25,-99.99,,,-99.99,,2013-03-17 21:22:00,
2013-03-17 14:32:00,72.0,35.0,-100.00,SW,232,8.0,14.0,26,-99.99,,,-99.99,,2013-03-17 21:32:00,
2013-03-17 14:42:00,71.0,34.0,-100.00,SW,214,10.0,15.0,26,-99.99,,,-99.99,,2013-03-17 21:42:00,
2013-03-17 14:52:00,72.0,33.0,-100.00,WSW,242,8.0,15.0,24,-99.99,,,-99.99,,2013-03-17 21:52:00,
2013-03-17 15:02:00,72.0,32.0,-100.00,WSW,249,8.0,12.0,23,-99.99,,,-99.99,,2013-03-17 22:02:00,
2013-03-17 15:12:00,72.0,31.0,-100.00,WNW,300,8.0,12.0,22,-99.99,,,-99.99,,2013-03-17 22:12:00,
2013-03-17 15:22:00,72.0,31.0,-100.00,NW,306,7.0,11.0,22,-99.99,,,-99.99,,2013-03-17 22:22:00,
2013-03-17 15:33:00,72.0,32.0,-100.00,WNW,291,7.0,13.0,23,-99.99,,,-99.99,,2013-03-17 22:33:00,
2013-03-17 15:42:00,72.0,33.0,-100.00,WNW,290,7.0,12.0,24,-99.99,,,-99.99,,2013-03-17 22:42:00,
2013-03-17 15:52:00,71.0,31.0,-100.00,WNW,286,8.0,12.0,23,-99.99,,,-99.99,,2013-03-17 22:52:00,
2013-03-17 16:02:00,71.0,31.0,-100.00,WNW,287,8.0,13.0,23,-99.99,,,-99.99,,2013-03-17 23:02:00,
2013-03-17 16:12:00,71.0,33.0,-100.00,West,277,9.0,13.0,25,-99.99,,,-99.99,,2013-03-17 23:12:00,
2013-03-17 16:22:00,70.0,34.0,-100.00,WNW,297,10.0,15.0,26,-99.99,,,-99.99,,2013-03-17 23:22:00,
2013-03-17 16:32:00,70.0,34.0,-100.00,WNW,291,8.0,14.0,26,-99.99,,,-99.99,,2013-03-17 23:32:00,
2013-03-17 16:42:00,70.0,34.0,-100.00,WNW,287,8.0,13.0,27,-99.99,,,-99.99,,2013-03-17 23:42:00,
2013-03-17 16:52:00,70.0,35.0,-100.00,WNW,287,10.0,13.0,28,-99.99,,,-99.99,,2013-03-17 23:52:00,
2013-03-17 17:02:00,70.0,34.0,-100.00,WNW,298,10.0,14.0,27,-99.99,,,-99.99,,2013-03-18 00:02:00,
2013-03-17 17:11:00,69.0,35.0,-100.00,WNW,297,9.0,14.0,29,-99.99,,,-99.99,,2013-03-18 00:11:00,
2013-03-17 17:22:00,69.0,35.0,-100.00,WNW,302,9.0,15.0,28,-99.99,,,-99.99,,2013-03-18 00:22:00,
2013-03-17 17:32:00,69.0,35.0,-100.00,WNW,297,8.0,13.0,29,-99.99,,,-99.99,,2013-03-18 00:32:00,
2013-03-17 17:42:00,69.0,35.0,-100.00,WNW,297,8.0,13.0,29,-99.99,,,-99.99,,2013-03-18 00:42:00,
2013-03-17 17:52:00,68.0,39.0,-100.00,NW,305,7.0,12.0,34,-99.99,,,-99.99,,2013-03-18 00:52:00,
2013-03-17 18:01:00,68.0,39.0,-100.00,NW,308,8.0,11.0,34,-99.99,,,-99.99,,2013-03-18 01:01:00,
2013-03-17 18:12:00,67.0,41.0,-100.00,NW,306,9.0,14.0,38,-99.99,,,-99.99,,2013-03-18 01:12:00,
2013-03-17 18:22:00,66.0,43.0,-100.00,NW,308,10.0,15.0,44,-99.99,,,-99.99,,2013-03-18 01:22:00,
2013-03-17 18:32:00,64.0,45.0,-100.00,NW,313,10.0,15.0,51,-99.99,,,-99.99,,2013-03-18 01:32:00,
2013-03-17 18:42:00,62.0,47.0,-100.00,NW,308,11.0,18.0,57,-99.99,,,-99.99,,2013-03-18 01:42:00,
2013-03-17 18:52:00,61.0,47.0,-100.00,NW,320,8.0,14.0,59,-99.99,,,-99.99,,2013-03-18 01:52:00,
2013-03-17 19:02:00,60.0,47.0,-100.00,NNW,331,5.0,9.0,62,-99.99,,,-99.99,,2013-03-18 02:02:00,
2013-03-17 19:12:00,60.0,47.0,-100.00,NW,315,4.0,9.0,63,-99.99,,,-99.99,,2013-03-18 02:12:00,
2013-03-17 19:22:00,59.0,46.0,-100.00,WNW,286,4.0,8.0,63,-99.99,,,-99.99,,2013-03-18 02:22:00,
2013-03-17 19:32:00,58.0,46.0,-100.00,South,174,1.0,4.0,65,-99.99,,,-99.99,,2013-03-18 02:32:00,
2013-03-17 19:42:00,58.0,47.0,-100.00,North,3,4.0,10.0,66,-99.99,,,-99.99,,2013-03-18 02:42:00,
2013-03-17 19:52:00,58.0,47.0,-100.00,NW,315,5.0,9.0,66,-99.99,,,-99.99,,2013-03-18 02:52:00,
2013-03-17 20:02:00,57.0,44.0,-100.00,SW,221,2.0,6.0,62,-99.99,,,-99.99,,2013-03-18 03:02:00,
2013-03-17 20:11:00,56.0,43.0,-100.00,SSW,199,1.0,3.0,61,-99.99,,,-99.99,,2013-03-18 03:11:00,
2013-03-17 20:22:00,55.0,41.0,-100.00,North,351,2.0,5.0,60,-99.99,,,-99.99,,2013-03-18 03:22:00,
2013-03-17 20:32:00,55.0,39.0,-100.00,West,280,4.0,8.0,55,-99.99,,,-99.99,,2013-03-18 03:32:00,
2013-03-17 20:42:00,55.0,35.0,-100.00,NW,319,8.0,13.0,46,-99.99,,,-99.99,,2013-03-18 03:42:00,
2013-03-17 20:52:00,55.0,35.0,-100.00,NW,325,7.0,10.0,46,-99.99,,,-99.99,,2013-03-18 03:52:00,
2013-03-17 21:02:00,55.0,34.0,-100.00,NNW,335,4.0,8.0,45,-99.99,,,-99.99,,2013-03-18 04:02:00,
2013-03-17 21:12:00,53.0,33.0,-100.00,West,275,1.0,4.0,46,-99.99,,,-99.99,,2013-03-18 04:12:00,
2013-03-17 21:22:00,52.0,32.0,-100.00,West,272,4.0,6.0,47,-99.99,,,-99.99,,2013-03-18 04:22:00,
2013-03-17 21:33:00,52.0,34.0,-100.00,SSE,158,1.0,3.0,51,-99.99,,,-99.99,,2013-03-18 04:33:00,
2013-03-17 21:42:00,51.0,35.0,-100.00,WNW,299,1.0,3.0,54,-99.99,,,-99.99,,2013-03-18 04:42:00,
2013-03-17 21:52:00,50.0,33.0,-100.00,NNW,334,1.0,2.0,52,-99.99,,,-99.99,,2013-03-18 04:52:00,
2013-03-17 22:02:00,48.0,36.0,-100.00,ENE,68,2.0,3.0,64,-99.99,,,-99.99,,2013-03-18 05:02:00,
2013-03-17 22:12:00,47.0,37.0,-100.00,North,6,2.0,4.0,68,-99.99,,,-99.99,,2013-03-18 05:12:00,
2013-03-17 22:22:00,47.0,37.0,-100.00,NNE,14,3.0,4.0,67,-99.99,,,-99.99,,2013-03-18 05:22:00,
2013-03-17 22:32:00,47.0,38.0,-100.00,NNE,12,2.0,3.0,70,-99.99,,,-99.99,,2013-03-18 05:32:00,
2013-03-17 22:42:00,47.0,36.0,-100.00,NNE,24,3.0,5.0,66,-99.99,,,-99.99,,2013-03-18 05:42:00,
2013-03-17 22:52:00,46.0,36.0,-100.00,North,3,1.0,5.0,68,-99.99,,,-99.99,,2013-03-18 05:52:00,
2013-03-17 23:02:00,46.0,36.0,-100.00,NE,40,2.0,5.0,68,-99.99,,,-99.99,,2013-03-18 06:02:00,
2013-03-17 23:12:00,46.0,36.0,-100.00,East,81,1.0,2.0,69,-99.99,,,-99.99,,2013-03-18 06:12:00,
2013-03-17 23:22:00,45.0,36.0,-100.00,NE,53,1.0,4.0,70,-99.99,,,-99.99,,2013-03-18 06:22:00,
2013-03-17 23:32:00,45.0,35.0,-100.00,NE,55,2.0,5.0,69,-99.99,,,-99.99,,2013-03-18 06:32:00,
2013-03-17 23:42:00,45.0,35.0,-100.00,ENE,62,1.0,5.0,69,-99.99,,,-99.99,,2013-03-18 06:42:00,
2013-03-17 23:52:00,45.0,35.0,-100.00,ENE,62,1.0,5.0,69,-99.99,,,-99.99,,2013-03-18 06:52:00,